Time;durP1;ratioP1;P1;durP2;ratioP2;P2;SDS_P1;SDS_P2;PMS_P1;PMS_P2;Temp;Humidity;BMP_temperature;BMP_pressure;BME280_temperature;BME280_humidity;BME280_pressure;Samples;Min_cycle;Max_cycle;Signal;HPM_P1;HPM_P2
2022/01/22 00:00:06;;;;;;;15.90;3.67;;;;;;;;;;4997072;28;20041;-22
2022/01/22 00:02:32;;;;;;;18.88;4.25;;;;;;;;;;4996711;28;20033;-22
2022/01/22 00:04:58;;;;;;;15.00;3.10;;;;;;;;;;4996705;28;20033;-22
2022/01/22 00:07:25;;;;;;;12.93;3.28;;;;;;;;;;4996834;28;20105;-22
2022/01/22 00:09:57;;;;;;;18.00;3.40;;;;;;;;;;4996925;28;20350;-22
2022/01/22 00:12:45;;;;;;;18.10;2.97;;;;;;;;;;4996827;28;20030;-22
2022/01/22 00:15:11;;;;;;;18.80;3.97;;;;;;;;;;4996392;28;20474;-22
2022/01/22 00:17:37;;;;;;;12.38;3.63;;;;;;;;;;4996826;28;20033;-22
2022/01/22 00:20:07;;;;;;;20.10;3.83;;;;;;;;;;4996368;28;20039;-22
2022/01/22 00:22:35;;;;;;;29.50;3.80;;;;;;;;;;4996347;28;20026;-22
2022/01/22 00:25:02;;;;;;;23.42;4.78;;;;;;;;;;4996322;28;20041;-22
2022/01/22 00:27:29;;;;;;;21.83;3.65;;;;;;;;;;4995116;28;20436;-22
2022/01/22 00:29:56;;;;;;;30.63;3.80;;;;;;;;;;4996438;28;20372;-22
2022/01/22 00:32:23;;;;;;;18.60;3.35;;;;;;;;;;4996702;28;20430;-23
2022/01/22 00:34:49;;;;;;;12.68;3.95;;;;;;;;;;4996291;28;20026;-22
2022/01/22 00:37:15;;;;;;;13.93;4.00;;;;;;;;;;4996066;28;20454;-20
2022/01/22 00:39:41;;;;;;;15.32;3.78;;;;;;;;;;4996237;28;20438;-22
2022/01/22 00:42:13;;;;;;;9.48;2.72;;;;;;;;;;4995788;28;20146;-22
2022/01/22 00:44:40;;;;;;;13.13;3.40;;;;;;;;;;4995838;28;20072;-21
2022/01/22 00:47:06;;;;;;;10.32;3.25;;;;;;;;;;4995789;28;20034;-21
2022/01/22 00:49:33;;;;;;;15.15;2.72;;;;;;;;;;4996116;28;20106;-22
2022/01/22 00:52:00;;;;;;;13.75;3.08;;;;;;;;;;4995802;28;20106;-22
2022/01/22 00:54:26;;;;;;;18.48;3.10;;;;;;;;;;4994854;28;20382;-22
2022/01/22 00:56:52;;;;;;;10.98;3.00;;;;;;;;;;4995735;28;20030;-22
2022/01/22 00:59:18;;;;;;;18.13;3.00;;;;;;;;;;4995980;28;20022;-22
2022/01/22 01:01:45;;;;;;;19.00;4.07;;;;;;;;;;4995668;28;20357;-21
2022/01/22 01:04:11;;;;;;;17.73;4.10;;;;;;;;;;4995599;28;20030;-21
2022/01/22 01:06:38;;;;;;;15.82;3.42;;;;;;;;;;4995516;28;20045;-22
2022/01/22 01:09:06;;;;;;;14.10;3.92;;;;;;;;;;4995559;28;20417;-22
2022/01/22 01:11:36;;;;;;;15.95;3.33;;;;;;;;;;4995552;28;20501;-22
2022/01/22 01:14:04;;;;;;;33.13;5.47;;;;;;;;;;4995430;28;20026;-22
2022/01/22 01:35:10;;;;;;;10.18;2.58;;;;;;;;;;4995222;28;20117;-24
2022/01/22 01:37:37;;;;;;;18.40;3.63;;;;;;;;;;4995191;28;20034;-22
2022/01/22 01:40:06;;;;;;;13.73;3.00;;;;;;;;;;4994084;28;20113;-22
2022/01/22 01:42:41;;;;;;;14.32;3.67;;;;;;;;;;4995078;28;20026;-23
2022/01/22 01:45:08;;;;;;;12.02;3.38;;;;;;;;;;4995459;28;20093;-22
2022/01/22 01:47:35;;;;;;;15.20;4.22;;;;;;;;;;4995038;28;20089;-21
2022/01/22 01:50:04;;;;;;;12.88;2.95;;;;;;;;;;4995347;28;20030;-22
2022/01/22 01:52:51;;;;;;;12.77;2.83;;;;;;;;;;4995423;28;20027;-22
2022/01/22 01:55:22;;;;;;;15.55;3.33;;;;;;;;;;4995351;28;20030;-22
2022/01/22 01:57:48;;;;;;;22.08;3.45;;;;;;;;;;4995316;28;20058;-21
2022/01/22 02:00:15;;;;;;;8.95;3.35;;;;;;;;;;4995518;28;20045;-22
2022/01/22 02:02:41;;;;;;;21.98;3.38;;;;;;;;;;4995198;28;20054;-23
2022/01/22 02:05:10;;;;;;;11.30;2.75;;;;;;;;;;4994948;28;20096;-21
2022/01/22 02:07:38;;;;;;;15.88;4.32;;;;;;;;;;4995122;28;20038;-22
2022/01/22 02:10:07;;;;;;;12.90;3.00;;;;;;;;;;4994863;28;20080;-23
2022/01/22 02:26:00;;;;;;;12.68;3.50;;;;;;;;;;4995002;28;20055;-22
2022/01/22 02:28:26;;;;;;;12.60;2.88;;;;;;;;;;4995006;28;20413;-22
2022/01/22 02:30:59;;;;;;;15.00;3.13;;;;;;;;;;4994793;28;20022;-22
2022/01/22 02:33:39;;;;;;;13.52;2.83;;;;;;;;;;4994725;28;20093;-22
2022/01/22 02:36:31;;;;;;;12.90;2.80;;;;;;;;;;4994755;28;20034;-22
2022/01/22 02:39:04;;;;;;;11.23;2.92;;;;;;;;;;4994592;28;20041;-22
2022/01/22 02:41:31;;;;;;;8.75;2.42;;;;;;;;;;4995699;28;20130;-22
2022/01/22 02:43:57;;;;;;;11.70;2.60;;;;;;;;;;4994735;28;20046;-23
2022/01/22 02:46:25;;;;;;;13.70;2.70;;;;;;;;;;4994805;28;20027;-22
2022/01/22 02:48:54;;;;;;;12.63;2.72;;;;;;;;;;4994699;28;20026;-23
2022/01/22 02:51:21;;;;;;;21.35;2.70;;;;;;;;;;4996790;28;20081;-22
2022/01/22 02:53:49;;;;;;;13.60;3.33;;;;;;;;;;4998064;28;20022;-23
2022/01/22 02:56:17;;;;;;;10.30;2.30;;;;;;;;;;4998314;28;20515;-21
2022/01/22 02:58:43;;;;;;;11.48;2.47;;;;;;;;;;4998215;28;20362;-22
2022/01/22 03:01:10;;;;;;;11.85;2.58;;;;;;;;;;4998404;28;20026;-22
2022/01/22 03:03:38;;;;;;;11.20;2.92;;;;;;;;;;4997837;28;20027;-22
2022/01/22 03:06:05;;;;;;;10.13;2.72;;;;;;;;;;4997765;28;20030;-22
2022/01/22 03:08:32;;;;;;;19.67;3.42;;;;;;;;;;4997010;28;20413;-22
2022/01/22 03:11:00;;;;;;;9.45;3.15;;;;;;;;;;4998183;28;20026;-22
2022/01/22 03:16:16;;;;;;;9.50;3.10;;;;;;;;;;4997644;28;20022;-22
2022/01/22 03:19:10;;;;;;;10.43;3.60;;;;;;;;;;4997885;28;20349;-22
2022/01/22 03:21:38;;;;;;;9.80;2.30;;;;;;;;;;4998111;28;20042;-23
2022/01/22 03:29:39;;;;;;;10.88;2.55;;;;;;;;;;4997499;28;20132;-22
2022/01/22 03:32:06;;;;;;;13.30;2.53;;;;;;;;;;4998078;28;20451;-21
2022/01/22 03:34:40;;;;;;;9.40;3.45;;;;;;;;;;4997308;28;20022;-22
2022/01/22 03:37:07;;;;;;;9.43;2.17;;;;;;;;;;4997183;28;20045;-22
2022/01/22 03:39:33;;;;;;;12.20;2.45;;;;;;;;;;4997409;28;20026;-22
2022/01/22 03:41:59;;;;;;;6.13;2.67;;;;;;;;;;4997014;28;20354;-23
2022/01/22 03:44:26;;;;;;;9.88;2.05;;;;;;;;;;4996991;28;20038;-21
2022/01/22 03:46:52;;;;;;;9.27;2.65;;;;;;;;;;4996838;28;20062;-22
2022/01/22 03:49:18;;;;;;;14.15;2.78;;;;;;;;;;4996917;28;20030;-22
2022/01/22 03:51:45;;;;;;;8.10;2.78;;;;;;;;;;4997692;28;20038;-22
2022/01/22 03:54:12;;;;;;;6.97;2.05;;;;;;;;;;4997100;28;20060;-22
2022/01/22 03:56:40;;;;;;;12.82;2.97;;;;;;;;;;4996778;28;20069;-22
2022/01/22 03:59:07;;;;;;;10.98;2.50;;;;;;;;;;4996758;28;20370;-22
2022/01/22 04:04:26;;;;;;;6.28;2.85;;;;;;;;;;4996736;28;20492;-22
2022/01/22 04:09:21;;;;;;;13.13;3.90;;;;;;;;;;4996571;28;20054;-21
2022/01/22 04:11:48;;;;;;;8.25;2.17;;;;;;;;;;4996333;28;20037;-22
2022/01/22 04:14:20;;;;;;;7.22;2.30;;;;;;;;;;4996413;28;20045;-22
2022/01/22 04:17:21;;;;;;;16.00;4.90;;;;;;;;;;4996383;28;20108;-22
2022/01/22 04:25:05;;;;;;;8.25;2.63;;;;;;;;;;4996574;28;20072;-22
2022/01/22 04:27:31;;;;;;;8.82;3.50;;;;;;;;;;4995927;28;20051;-23
2022/01/22 04:29:59;;;;;;;10.07;3.50;;;;;;;;;;4996118;28;20038;-22
2022/01/22 04:32:26;;;;;;;9.70;2.42;;;;;;;;;;4996393;28;20026;-22
2022/01/22 04:34:52;;;;;;;9.77;2.40;;;;;;;;;;4996421;28;20030;-22
2022/01/22 04:37:18;;;;;;;9.57;3.15;;;;;;;;;;4996145;28;20037;-23
2022/01/22 04:39:46;;;;;;;10.07;2.80;;;;;;;;;;4995151;28;20035;-22
2022/01/22 04:42:12;;;;;;;14.55;2.28;;;;;;;;;;4995849;28;20030;-22
2022/01/22 04:44:49;;;;;;;6.60;2.13;;;;;;;;;;4995887;28;20112;-21
2022/01/22 04:47:27;;;;;;;9.27;2.28;;;;;;;;;;4996043;28;20030;-22
2022/01/22 04:54:57;;;;;;;8.02;2.60;;;;;;;;;;4995809;28;20101;-22
2022/01/22 04:55:27;;;;;;;14.85;2.38;;;;;;;;;;4995735;28;20042;-22
2022/01/22 04:57:53;;;;;;;4.22;1.77;;;;;;;;;;4995616;28;20473;-22
2022/01/22 05:00:19;;;;;;;17.60;3.10;;;;;;;;;;4996083;28;20041;-22
2022/01/22 05:02:45;;;;;;;6.40;2.03;;;;;;;;;;4995448;28;20062;-24
2022/01/22 05:05:12;;;;;;;3.97;2.00;;;;;;;;;;4995802;28;20369;-22
2022/01/22 05:07:38;;;;;;;5.90;2.33;;;;;;;;;;4995460;28;20030;-22
2022/01/22 05:10:05;;;;;;;6.45;2.60;;;;;;;;;;4995622;28;20026;-23
2022/01/22 05:12:31;;;;;;;6.88;2.10;;;;;;;;;;4993977;28;20019;-22
2022/01/22 05:14:58;;;;;;;10.18;2.28;;;;;;;;;;4995216;28;20026;-22
2022/01/22 05:17:24;;;;;;;8.57;2.50;;;;;;;;;;4995331;28;20444;-22
2022/01/22 05:19:57;;;;;;;6.03;2.47;;;;;;;;;;4995132;28;20030;-23
2022/01/22 05:22:45;;;;;;;9.48;2.88;;;;;;;;;;4995387;28;20034;-22
2022/01/22 05:25:19;;;;;;;10.68;2.42;;;;;;;;;;4995766;28;20034;-22
2022/01/22 05:28:19;;;;;;;7.57;2.40;;;;;;;;;;4995445;28;20042;-23
2022/01/22 05:30:52;;;;;;;5.85;2.60;;;;;;;;;;4995023;28;20450;-22
2022/01/22 05:36:54;;;;;;;9.05;2.00;;;;;;;;;;4995637;28;20031;-22
2022/01/22 05:38:49;;;;;;;5.90;2.22;;;;;;;;;;4995464;28;20125;-22
2022/01/22 05:41:15;;;;;;;6.10;2.03;;;;;;;;;;4994171;28;20378;-22
2022/01/22 05:43:41;;;;;;;12.00;2.97;;;;;;;;;;4994070;28;20034;-22
2022/01/22 05:46:07;;;;;;;7.07;2.28;;;;;;;;;;4995009;28;20052;-23
2022/01/22 05:48:34;;;;;;;9.02;1.80;;;;;;;;;;4995287;28;20033;-23
2022/01/22 05:51:03;;;;;;;9.40;2.63;;;;;;;;;;4995525;28;20022;-22
2022/01/22 05:53:41;;;;;;;6.60;1.70;;;;;;;;;;4994891;28;20028;-22
2022/01/22 06:01:20;;;;;;;8.40;2.83;;;;;;;;;;4995474;28;20042;-23
2022/01/22 06:03:46;;;;;;;6.95;2.03;;;;;;;;;;4994732;28;20038;-22
2022/01/22 06:06:13;;;;;;;9.88;2.80;;;;;;;;;;4995442;28;20027;-22
2022/01/22 06:08:53;;;;;;;13.50;3.95;;;;;;;;;;4994676;28;20037;-21
2022/01/22 06:11:25;;;;;;;8.15;2.13;;;;;;;;;;4995071;28;20093;-23
2022/01/22 06:13:51;;;;;;;8.30;2.05;;;;;;;;;;4995030;28;20052;-22
2022/01/22 06:16:19;;;;;;;11.65;2.78;;;;;;;;;;4994793;28;20122;-22
2022/01/22 06:18:45;;;;;;;9.88;2.10;;;;;;;;;;4995041;28;20385;-22
2022/01/22 06:21:11;;;;;;;9.48;3.92;;;;;;;;;;4994770;28;20030;-22
2022/01/22 06:23:39;;;;;;;8.60;1.90;;;;;;;;;;4994756;28;20082;-22
2022/01/22 06:26:06;;;;;;;5.15;2.50;;;;;;;;;;4995516;28;20042;-23
2022/01/22 06:28:33;;;;;;;11.30;2.13;;;;;;;;;;4998560;28;20034;-22
2022/01/22 06:30:59;;;;;;;5.57;2.05;;;;;;;;;;4998423;28;20045;-22
2022/01/22 06:33:26;;;;;;;9.52;2.03;;;;;;;;;;4998355;28;20113;-22
2022/01/22 06:35:52;;;;;;;12.20;2.40;;;;;;;;;;4998397;28;20512;-22
2022/01/22 06:38:18;;;;;;;11.43;2.95;;;;;;;;;;4998573;28;20030;-21
2022/01/22 06:43:30;;;;;;;6.22;1.88;;;;;;;;;;4998523;28;20504;-23
2022/01/22 06:45:56;;;;;;;11.73;2.50;;;;;;;;;;4998185;28;20041;-23
2022/01/22 06:48:22;;;;;;;5.55;2.05;;;;;;;;;;4997091;28;20038;-24
2022/01/22 06:50:49;;;;;;;10.65;3.60;;;;;;;;;;4998342;28;20022;-22
2022/01/22 06:53:15;;;;;;;14.25;2.80;;;;;;;;;;4998259;28;20057;-22
2022/01/22 06:55:52;;;;;;;10.82;2.17;;;;;;;;;;4998010;28;20027;-22
2022/01/22 06:58:18;;;;;;;7.38;2.25;;;;;;;;;;4998230;28;20061;-22
2022/01/22 07:00:44;;;;;;;7.15;2.08;;;;;;;;;;4996932;28;20458;-22
2022/01/22 07:03:10;;;;;;;6.57;2.30;;;;;;;;;;4997926;28;20041;-23
2022/01/22 07:05:37;;;;;;;6.55;1.80;;;;;;;;;;4997964;28;20041;-23
2022/01/22 07:08:03;;;;;;;6.55;2.03;;;;;;;;;;4997904;28;20177;-22
2022/01/22 07:10:30;;;;;;;10.02;2.63;;;;;;;;;;4996722;28;20040;-24
2022/01/22 07:12:57;;;;;;;6.78;1.90;;;;;;;;;;4997501;28;20030;-23
2022/01/22 07:15:23;;;;;;;9.95;2.53;;;;;;;;;;4997541;28;20024;-22
2022/01/22 07:17:49;;;;;;;10.15;2.22;;;;;;;;;;4997724;28;20356;-22
2022/01/22 07:20:24;;;;;;;11.52;2.20;;;;;;;;;;4997751;28;20034;-22
2022/01/22 07:25:40;;;;;;;8.40;2.33;;;;;;;;;;4996488;28;20058;-22
2022/01/22 07:28:06;;;;;;;10.38;3.00;;;;;;;;;;4996415;28;20034;-22
2022/01/22 07:30:33;;;;;;;7.30;2.10;;;;;;;;;;4997479;28;20057;-24
2022/01/22 07:32:59;;;;;;;7.50;2.00;;;;;;;;;;4997395;28;20048;-22
2022/01/22 07:35:25;;;;;;;9.70;2.53;;;;;;;;;;4997217;28;20089;-22
2022/01/22 07:37:51;;;;;;;7.05;2.25;;;;;;;;;;4997225;28;20105;-23
2022/01/22 07:40:17;;;;;;;4.15;2.28;;;;;;;;;;4997567;28;20035;-23
2022/01/22 07:42:44;;;;;;;2.88;1.88;;;;;;;;;;4997055;28;20042;-21
2022/01/22 07:45:10;;;;;;;12.60;2.67;;;;;;;;;;4996920;28;20465;-22
2022/01/22 07:47:37;;;;;;;8.38;2.33;;;;;;;;;;4996666;28;20050;-22
2022/01/22 07:50:03;;;;;;;12.77;2.60;;;;;;;;;;4997665;28;20032;-22
2022/01/22 07:52:30;;;;;;;8.98;2.40;;;;;;;;;;4997250;28;20026;-22
2022/01/22 07:54:56;;;;;;;11.13;2.35;;;;;;;;;;4997012;28;20022;-23
2022/01/22 07:57:22;;;;;;;13.32;2.50;;;;;;;;;;4996596;28;20038;-22
2022/01/22 07:59:48;;;;;;;12.32;2.35;;;;;;;;;;4996915;28;20042;-22
2022/01/22 08:02:15;;;;;;;8.32;4.30;;;;;;;;;;4996732;28;20069;-22
2022/01/22 08:04:41;;;;;;;9.48;2.63;;;;;;;;;;4996813;28;20362;-23
2022/01/22 08:07:08;;;;;;;7.57;2.33;;;;;;;;;;4996456;28;20098;-22
2022/01/22 08:09:35;;;;;;;16.15;3.80;;;;;;;;;;4996413;28;20027;-21
2022/01/22 08:12:01;;;;;;;8.27;1.90;;;;;;;;;;4996561;28;20041;-22
2022/01/22 08:14:28;;;;;;;8.68;2.28;;;;;;;;;;4996530;28;20142;-22
2022/01/22 08:16:54;;;;;;;16.65;3.85;;;;;;;;;;4996234;28;20105;-22
2022/01/22 08:19:20;;;;;;;5.07;1.85;;;;;;;;;;4996226;28;20088;-22
2022/01/22 08:21:47;;;;;;;6.55;2.30;;;;;;;;;;4996332;28;20405;-21
2022/01/22 08:24:15;;;;;;;9.73;2.20;;;;;;;;;;4996212;28;20026;-22
2022/01/22 08:26:53;;;;;;;8.27;2.25;;;;;;;;;;4995926;28;20105;-22
2022/01/22 08:29:19;;;;;;;7.55;2.63;;;;;;;;;;4996299;28;20060;-22
2022/01/22 08:32:04;;;;;;;8.02;2.53;;;;;;;;;;4996004;28;20354;-25
2022/01/22 08:37:15;;;;;;;15.50;3.05;;;;;;;;;;4996080;28;20180;-23
2022/01/22 08:39:43;;;;;;;4.72;2.33;;;;;;;;;;4995811;28;20038;-22
2022/01/22 08:42:09;;;;;;;11.27;2.22;;;;;;;;;;4995937;28;20341;-22
2022/01/22 08:44:35;;;;;;;6.75;2.00;;;;;;;;;;4995724;28;20027;-22
2022/01/22 08:47:01;;;;;;;6.07;2.35;;;;;;;;;;4995540;28;20102;-22
2022/01/22 08:49:27;;;;;;;10.98;2.05;;;;;;;;;;4995042;28;20442;-22
2022/01/22 08:51:54;;;;;;;14.68;2.42;;;;;;;;;;4995630;28;20033;-22
2022/01/22 08:54:21;;;;;;;8.38;3.88;;;;;;;;;;4995031;28;20184;-23
2022/01/22 08:56:47;;;;;;;8.90;2.40;;;;;;;;;;4995647;28;20041;-22
2022/01/22 08:59:14;;;;;;;13.77;2.63;;;;;;;;;;4995615;28;20517;-22
2022/01/22 09:01:45;;;;;;;6.60;2.10;;;;;;;;;;4995883;28;20030;-22
2022/01/22 09:04:12;;;;;;;7.65;2.28;;;;;;;;;;4995897;28;20134;-22
2022/01/22 09:06:38;;;;;;;7.97;1.85;;;;;;;;;;4996001;28;20030;-23
2022/01/22 09:09:10;;;;;;;6.82;2.42;;;;;;;;;;4995539;28;20029;-22
2022/01/22 09:11:37;;;;;;;6.30;1.98;;;;;;;;;;4994473;28;20481;-22
2022/01/22 09:14:05;;;;;;;11.48;2.13;;;;;;;;;;4995234;28;20037;-23
2022/01/22 09:16:31;;;;;;;4.85;2.05;;;;;;;;;;4995694;28;20059;-23
2022/01/22 09:19:05;;;;;;;4.75;1.77;;;;;;;;;;4995359;28;20397;-22
2022/01/22 09:21:31;;;;;;;10.55;2.50;;;;;;;;;;4995545;28;20026;-22
2022/01/22 09:23:57;;;;;;;9.85;2.63;;;;;;;;;;4995646;28;20054;-23
2022/01/22 09:26:23;;;;;;;11.50;3.67;;;;;;;;;;4995058;28;20132;-23
2022/01/22 09:28:50;;;;;;;6.05;2.20;;;;;;;;;;4995154;28;20026;-22
2022/01/22 09:31:16;;;;;;;9.30;2.55;;;;;;;;;;4995476;28;20099;-22
2022/01/22 09:33:44;;;;;;;8.60;3.10;;;;;;;;;;4995230;28;20041;-23
2022/01/22 09:36:10;;;;;;;7.72;3.35;;;;;;;;;;4995041;28;20027;-22
2022/01/22 09:38:36;;;;;;;7.63;1.92;;;;;;;;;;4995474;28;20041;-23
2022/01/22 09:41:05;;;;;;;11.52;2.83;;;;;;;;;;4995110;28;20342;-23
2022/01/22 09:43:31;;;;;;;12.52;2.67;;;;;;;;;;4994072;28;20365;-22
2022/01/22 09:45:57;;;;;;;14.60;2.40;;;;;;;;;;4995331;28;20030;-22
2022/01/22 09:48:24;;;;;;;16.80;3.25;;;;;;;;;;4994974;28;20113;-22
2022/01/22 09:50:50;;;;;;;8.57;2.85;;;;;;;;;;4995421;28;20023;-22
2022/01/22 09:53:16;;;;;;;17.88;2.40;;;;;;;;;;4994993;28;20030;-22
2022/01/22 09:55:42;;;;;;;10.60;2.88;;;;;;;;;;4995123;28;20030;-22
2022/01/22 09:58:09;;;;;;;12.20;2.40;;;;;;;;;;4995608;28;20027;-22
2022/01/22 10:00:35;;;;;;;6.65;2.03;;;;;;;;;;4997969;28;20101;-22
2022/01/22 10:03:01;;;;;;;11.73;3.03;;;;;;;;;;4997971;28;20033;-22
2022/01/22 10:05:35;;;;;;;9.77;2.50;;;;;;;;;;4998879;28;20099;-23
2022/01/22 10:08:20;;;;;;;10.30;3.55;;;;;;;;;;4998800;28;20054;-22
2022/01/22 10:10:47;;;;;;;11.40;2.67;;;;;;;;;;4997993;28;20331;-23
2022/01/22 10:13:13;;;;;;;13.43;2.22;;;;;;;;;;4997790;28;20442;-22
2022/01/22 10:15:39;;;;;;;12.07;2.65;;;;;;;;;;4998855;28;20126;-22
2022/01/22 10:18:06;;;;;;;7.82;2.00;;;;;;;;;;4998728;28;20045;-22
2022/01/22 10:20:36;;;;;;;16.23;2.80;;;;;;;;;;4998733;28;20103;-22
2022/01/22 10:23:19;;;;;;;19.67;2.50;;;;;;;;;;4998519;28;20061;-22
2022/01/22 10:25:51;;;;;;;11.20;2.22;;;;;;;;;;4998590;28;20277;-23
2022/01/22 10:28:23;;;;;;;10.23;2.28;;;;;;;;;;4998754;28;20389;-22
2022/01/22 10:31:00;;;;;;;12.50;2.15;;;;;;;;;;4998417;28;20029;-22
2022/01/22 10:33:29;;;;;;;11.70;2.28;;;;;;;;;;4998383;28;20030;-23
2022/01/22 10:36:08;;;;;;;11.50;2.53;;;;;;;;;;4998306;28;20026;-22
2022/01/22 10:38:45;;;;;;;18.58;3.15;;;;;;;;;;4998467;28;20045;-22
2022/01/22 10:41:12;;;;;;;15.50;2.35;;;;;;;;;;4998443;28;20034;-22
2022/01/22 10:43:43;;;;;;;8.93;2.83;;;;;;;;;;4998130;28;20335;-22
2022/01/22 10:48:44;;;;;;;10.45;2.40;;;;;;;;;;4998068;28;20038;-22
2022/01/22 10:51:10;;;;;;;10.98;2.38;;;;;;;;;;4997886;28;20120;-24
2022/01/22 10:53:36;;;;;;;10.27;2.38;;;;;;;;;;4997879;28;20058;-22
2022/01/22 10:56:04;;;;;;;11.93;2.30;;;;;;;;;;4997888;28;20045;-22
2022/01/22 10:58:30;;;;;;;11.48;2.05;;;;;;;;;;4998016;28;20027;-22
2022/01/22 11:01:06;;;;;;;7.78;1.70;;;;;;;;;;4997587;28;20041;-22
2022/01/22 11:03:32;;;;;;;4.60;2.15;;;;;;;;;;4997796;28;20034;-23
2022/01/22 11:06:04;;;;;;;6.13;3.45;;;;;;;;;;4997567;28;20038;-21
2022/01/22 11:08:30;;;;;;;8.75;2.40;;;;;;;;;;4997763;28;20034;-22
2022/01/22 11:10:56;;;;;;;11.18;2.10;;;;;;;;;;4996786;28;20057;-27
2022/01/22 11:13:23;;;;;;;7.00;2.67;;;;;;;;;;4996338;28;20029;-22
2022/01/22 11:15:50;;;;;;;11.23;2.38;;;;;;;;;;4996257;28;20038;-23
2022/01/22 11:18:18;;;;;;;12.05;2.97;;;;;;;;;;4997143;28;20038;-23
2022/01/22 11:20:45;;;;;;;9.50;2.75;;;;;;;;;;4997334;28;20030;-22
2022/01/22 11:23:12;;;;;;;9.88;2.25;;;;;;;;;;4997431;28;20030;-22
2022/01/22 11:25:39;;;;;;;16.30;2.67;;;;;;;;;;4996993;28;20038;-22
2022/01/22 11:28:06;;;;;;;4.90;2.15;;;;;;;;;;4996190;28;20478;-22
2022/01/22 11:30:32;;;;;;;7.72;1.65;;;;;;;;;;4997702;28;20023;-23
2022/01/22 11:33:01;;;;;;;11.63;2.28;;;;;;;;;;4997178;28;20362;-22
2022/01/22 11:35:33;;;;;;;13.45;2.42;;;;;;;;;;4997173;28;20033;-22
2022/01/22 11:38:04;;;;;;;7.00;2.17;;;;;;;;;;4997176;28;20041;-23
2022/01/22 11:40:33;;;;;;;7.32;2.13;;;;;;;;;;4996341;28;20117;-23
2022/01/22 11:43:04;;;;;;;12.50;2.30;;;;;;;;;;4996637;28;20038;-23
2022/01/22 11:45:33;;;;;;;13.02;2.78;;;;;;;;;;4997349;28;20030;-24
2022/01/22 11:48:16;;;;;;;13.98;2.30;;;;;;;;;;4996462;28;20049;-22
2022/01/22 11:50:43;;;;;;;9.23;2.78;;;;;;;;;;4997125;28;20026;-23
2022/01/22 11:53:24;;;;;;;10.18;2.75;;;;;;;;;;4997024;28;20033;-22
2022/01/22 11:56:13;;;;;;;15.13;3.92;;;;;;;;;;4997067;28;20089;-23
2022/01/22 11:59:06;;;;;;;13.50;2.72;;;;;;;;;;4991710;28;20035;-25
2022/01/22 12:04:16;;;;;;;9.52;2.63;;;;;;;;;;4996897;28;20117;-21
2022/01/22 12:07:06;;;;;;;15.85;3.15;;;;;;;;;;4995806;28;20026;-23
2022/01/22 12:09:33;;;;;;;10.93;3.10;;;;;;;;;;4996628;28;20045;-24
2022/01/22 12:15:05;;;;;;;7.78;2.78;;;;;;;;;;4996720;28;20033;-22
2022/01/22 12:17:58;;;;;;;14.25;4.15;;;;;;;;;;4995644;28;20113;-22
2022/01/22 12:23:04;;;;;;;8.10;2.00;;;;;;;;;;4996701;28;20104;-22
2022/01/22 12:25:30;;;;;;;7.75;2.72;;;;;;;;;;4995070;28;20056;-24
2022/01/22 12:27:57;;;;;;;6.65;2.28;;;;;;;;;;4996411;28;20146;-22
2022/01/22 12:30:44;;;;;;;17.55;4.03;;;;;;;;;;4996182;28;20030;-23
2022/01/22 12:33:15;;;;;;;13.35;2.13;;;;;;;;;;4996211;28;20034;-22
2022/01/22 12:35:44;;;;;;;10.98;2.60;;;;;;;;;;4996056;28;20478;-22
2022/01/22 12:38:23;;;;;;;15.30;2.85;;;;;;;;;;4995956;28;20046;-23
2022/01/22 12:40:57;;;;;;;14.88;3.65;;;;;;;;;;4995850;28;20500;-23
2022/01/22 12:43:30;;;;;;;10.52;2.75;;;;;;;;;;4996525;28;20033;-24
2022/01/22 12:45:58;;;;;;;16.85;3.28;;;;;;;;;;4996233;28;20127;-22
2022/01/22 12:48:27;;;;;;;8.48;2.60;;;;;;;;;;4996153;28;20472;-22
2022/01/22 12:50:53;;;;;;;9.00;3.25;;;;;;;;;;4995984;28;20118;-22
2022/01/22 12:53:20;;;;;;;16.85;3.67;;;;;;;;;;4995968;28;20026;-22
2022/01/22 12:58:27;;;;;;;10.10;2.38;;;;;;;;;;4994844;28;20035;-22
2022/01/22 13:01:07;;;;;;;7.30;1.98;;;;;;;;;;4995573;28;20041;-22
2022/01/22 13:03:34;;;;;;;5.43;2.07;;;;;;;;;;4995533;28;20036;-22
2022/01/22 13:06:01;;;;;;;11.57;2.42;;;;;;;;;;4995775;28;20041;-22
2022/01/22 13:08:28;;;;;;;12.48;3.63;;;;;;;;;;4995633;28;20100;-22
2022/01/22 13:10:56;;;;;;;13.63;3.05;;;;;;;;;;4995745;28;20142;-22
2022/01/22 13:13:23;;;;;;;10.48;2.55;;;;;;;;;;4995452;28;20034;-23
2022/01/22 13:16:00;;;;;;;10.40;3.42;;;;;;;;;;4995441;28;20026;-22
2022/01/22 13:18:38;;;;;;;8.73;2.50;;;;;;;;;;4994960;28;20072;-22
2022/01/22 13:21:08;;;;;;;6.32;1.85;;;;;;;;;;4995435;28;20031;-22
2022/01/22 13:23:35;;;;;;;10.80;2.03;;;;;;;;;;4995607;28;20046;-21
2022/01/22 13:26:01;;;;;;;13.15;2.38;;;;;;;;;;4995122;28;20069;-22
2022/01/22 13:28:35;;;;;;;9.23;3.20;;;;;;;;;;4995315;28;20031;-21
2022/01/22 13:31:12;;;;;;;7.80;2.50;;;;;;;;;;4995872;28;20387;-22
2022/01/22 13:33:47;;;;;;;9.30;2.50;;;;;;;;;;4995263;28;20042;-22
2022/01/22 13:49:30;;;;;;;8.88;2.72;;;;;;;;;;4995441;28;20045;-22
2022/01/22 13:52:00;;;;;;;11.45;2.45;;;;;;;;;;4995440;28;20358;-22
2022/01/22 13:54:27;;;;;;;11.25;3.17;;;;;;;;;;4995279;28;20365;-22
2022/01/22 13:56:58;;;;;;;10.40;3.20;;;;;;;;;;4994995;28;20359;-24
2022/01/22 13:59:28;;;;;;;14.07;3.15;;;;;;;;;;4994174;28;20449;-23
2022/01/22 14:02:14;;;;;;;14.03;2.73;;;;;;;;;;4994380;28;20027;-23
2022/01/22 14:04:41;;;;;;;10.52;2.60;;;;;;;;;;4995579;28;20031;-22
2022/01/22 14:07:29;;;;;;;9.82;2.53;;;;;;;;;;4994833;28;20022;-22
2022/01/22 14:10:06;;;;;;;9.82;4.43;;;;;;;;;;4995218;28;20035;-22
2022/01/22 14:12:41;;;;;;;11.45;2.10;;;;;;;;;;4994778;28;20030;-22
2022/01/22 14:15:14;;;;;;;8.15;2.55;;;;;;;;;;4994998;28;20037;-22
2022/01/22 14:18:07;;;;;;;16.90;2.83;;;;;;;;;;4995146;28;20030;-22
2022/01/22 14:20:34;;;;;;;12.05;2.70;;;;;;;;;;4994846;28;20034;-22
2022/01/22 14:23:03;;;;;;;7.38;2.80;;;;;;;;;;4994704;28;20164;-23
2022/01/22 14:25:30;;;;;;;10.07;2.47;;;;;;;;;;4994498;28;20034;-21
2022/01/22 14:27:56;;;;;;;11.70;2.42;;;;;;;;;;4994627;28;20042;-21
2022/01/22 14:30:31;;;;;;;18.58;3.15;;;;;;;;;;4994867;28;20102;-22
2022/01/22 14:32:58;;;;;;;8.98;3.00;;;;;;;;;;4994526;28;20025;-21
2022/01/22 14:35:25;;;;;;;9.85;2.45;;;;;;;;;;4994544;28;20030;-22
2022/01/22 14:37:54;;;;;;;10.85;2.33;;;;;;;;;;4993619;28;20093;-22
2022/01/22 14:45:57;;;;;;;7.50;2.60;;;;;;;;;;4994958;28;20037;-21
2022/01/22 14:48:25;;;;;;;11.27;2.05;;;;;;;;;;4996997;28;20041;-21
2022/01/22 14:50:51;;;;;;;15.25;2.88;;;;;;;;;;4998292;28;20018;-21
2022/01/22 14:53:17;;;;;;;10.45;2.05;;;;;;;;;;4997887;28;20026;-22
2022/01/22 14:55:58;;;;;;;7.95;2.35;;;;;;;;;;4998063;28;20032;-22
2022/01/22 14:58:25;;;;;;;8.10;2.33;;;;;;;;;;4998281;28;20105;-21
2022/01/22 15:00:51;;;;;;;8.48;2.47;;;;;;;;;;4998368;28;20088;-21
2022/01/22 15:03:17;;;;;;;7.20;2.65;;;;;;;;;;4998100;28;20041;-21
2022/01/22 15:05:44;;;;;;;14.63;3.22;;;;;;;;;;4997801;28;20049;-21
2022/01/22 15:08:10;;;;;;;14.73;2.13;;;;;;;;;;4997672;28;20117;-21
2022/01/22 15:10:36;;;;;;;12.85;2.67;;;;;;;;;;4997712;28;20338;-21
2022/01/22 15:13:02;;;;;;;7.60;1.80;;;;;;;;;;4997626;28;20046;-21
2022/01/22 15:15:35;;;;;;;12.10;2.53;;;;;;;;;;4997611;28;20036;-23
2022/01/22 15:20:53;;;;;;;18.52;4.32;;;;;;;;;;4997305;28;20101;-21
2022/01/22 15:23:19;;;;;;;6.85;2.33;;;;;;;;;;4997402;28;20034;-23
2022/01/22 15:25:45;;;;;;;9.77;1.90;;;;;;;;;;4997208;28;20100;-21
2022/01/22 15:28:12;;;;;;;13.52;2.92;;;;;;;;;;4997607;28;20026;-21
2022/01/22 15:30:39;;;;;;;13.32;2.67;;;;;;;;;;4996454;28;20054;-21
2022/01/22 15:33:20;;;;;;;13.02;2.70;;;;;;;;;;4997201;28;20045;-23
2022/01/22 15:35:46;;;;;;;11.05;2.78;;;;;;;;;;4997222;28;20030;-22
2022/01/22 15:38:12;;;;;;;12.50;2.72;;;;;;;;;;4997450;28;20030;-21
2022/01/22 15:40:38;;;;;;;9.65;2.38;;;;;;;;;;4996970;28;20077;-21
2022/01/22 15:43:06;;;;;;;8.88;2.10;;;;;;;;;;4997311;28;20049;-22
2022/01/22 15:45:35;;;;;;;12.82;2.22;;;;;;;;;;4997315;28;20109;-22
2022/01/22 15:48:01;;;;;;;11.52;2.25;;;;;;;;;;4996988;28;20022;-21
2022/01/22 15:50:27;;;;;;;11.43;2.10;;;;;;;;;;4996948;28;20022;-22
2022/01/22 15:52:54;;;;;;;6.53;2.03;;;;;;;;;;4997481;28;20023;-22
2022/01/22 15:55:20;;;;;;;7.43;2.45;;;;;;;;;;4996975;28;20023;-22
2022/01/22 15:57:46;;;;;;;6.93;2.17;;;;;;;;;;4996655;28;20034;-22
2022/01/22 16:00:13;;;;;;;9.00;2.13;;;;;;;;;;4996205;28;20034;-21
2022/01/22 16:02:40;;;;;;;11.18;2.28;;;;;;;;;;4996811;28;20117;-22
2022/01/22 16:05:07;;;;;;;8.63;2.50;;;;;;;;;;4996758;28;20121;-22
2022/01/22 16:07:33;;;;;;;9.07;2.33;;;;;;;;;;4995773;28;20030;-22
2022/01/22 16:10:01;;;;;;;7.10;2.13;;;;;;;;;;4996705;28;20027;-22
2022/01/22 16:12:28;;;;;;;7.82;1.80;;;;;;;;;;4996539;28;20521;-22
2022/01/22 16:14:55;;;;;;;11.05;2.03;;;;;;;;;;4996904;28;20026;-21
2022/01/22 16:17:32;;;;;;;8.02;2.22;;;;;;;;;;4996892;28;20382;-22
2022/01/22 16:19:59;;;;;;;9.45;2.53;;;;;;;;;;4997054;28;20034;-21
2022/01/22 16:22:27;;;;;;;11.48;2.10;;;;;;;;;;4996687;28;20026;-21
2022/01/22 16:24:54;;;;;;;12.55;2.50;;;;;;;;;;4996427;28;20069;-22
2022/01/22 16:27:22;;;;;;;7.72;2.08;;;;;;;;;;4996208;28;20038;-22
2022/01/22 16:29:48;;;;;;;14.80;3.33;;;;;;;;;;4996585;28;20030;-22
2022/01/22 16:32:14;;;;;;;24.92;2.97;;;;;;;;;;4996485;28;20022;-21